createdAt,value
2022-09-21T00:01:17.444Z,9.08
2022-09-21T00:03:44.955Z,9.03
2022-09-21T00:06:17.575Z,9.05
2022-09-21T00:08:45.918Z,9.00
2022-09-21T00:11:24.836Z,8.83
2022-09-21T00:13:55.182Z,8.87
2022-09-21T00:16:22.386Z,8.75
2022-09-21T00:18:49.193Z,8.76
2022-09-21T00:21:16.905Z,8.74
2022-09-21T00:23:44.265Z,8.54
2022-09-21T00:26:20.410Z,8.76
2022-09-21T00:28:47.481Z,8.70
2022-09-21T00:31:17.987Z,8.73
2022-09-21T00:33:44.690Z,8.68
2022-09-21T00:36:14.033Z,8.54
2022-09-21T00:38:41.130Z,8.39
2022-09-21T00:41:09.114Z,8.57
2022-09-21T00:43:45.987Z,8.65
2022-09-21T00:46:29.872Z,8.28
2022-09-21T00:48:58.449Z,8.27
2022-09-21T00:51:25.722Z,8.08
2022-09-21T00:53:59.033Z,8.17
2022-09-21T00:56:26.159Z,8.10
2022-09-21T00:58:54.992Z,8.06
2022-09-21T01:01:22.373Z,8.02
2022-09-21T01:03:51.402Z,7.91
2022-09-21T01:06:20.129Z,7.92
2022-09-21T01:08:52.532Z,7.84
2022-09-21T01:11:46.216Z,7.61
2022-09-21T01:14:28.950Z,7.51
2022-09-21T01:17:10.663Z,7.71
2022-09-21T01:20:05.342Z,7.65
2022-09-21T01:22:48.541Z,7.68
2022-09-21T01:25:24.169Z,7.63
2022-09-21T01:28:01.975Z,7.49
2022-09-21T01:30:29.994Z,7.61
2022-09-21T01:33:05.156Z,8.01
2022-09-21T01:35:57.617Z,7.54
2022-09-21T01:38:33.877Z,7.64
2022-09-21T01:41:04.626Z,7.56
2022-09-21T01:43:42.031Z,7.52
2022-09-21T01:46:13.817Z,7.44
2022-09-21T01:48:44.763Z,7.27
2022-09-21T01:51:15.050Z,7.31
2022-09-21T01:53:47.632Z,7.27
2022-09-21T01:56:17.908Z,7.29
2022-09-21T01:58:59.346Z,7.42
2022-09-21T02:01:29.082Z,7.29
2022-09-21T02:03:59.982Z,7.28
2022-09-21T02:06:28.665Z,7.23
2022-09-21T02:08:55.759Z,7.18
2022-09-21T02:11:22.626Z,7.13
2022-09-21T02:13:52.529Z,6.98
2022-09-21T02:16:41.378Z,6.92
2022-09-21T02:19:14.098Z,7.07
2022-09-21T02:21:58.442Z,6.62
2022-09-21T02:24:51.848Z,6.76
2022-09-21T02:27:52.979Z,6.73
2022-09-21T02:30:22.124Z,6.70
2022-09-21T02:33:13.235Z,6.85
2022-09-21T02:35:51.985Z,6.59
2022-09-21T02:38:36.236Z,6.46
2022-09-21T02:41:19.924Z,6.71
2022-09-21T02:43:52.738Z,6.61
2022-09-21T02:46:28.624Z,6.51
2022-09-21T02:49:00.758Z,6.30
2022-09-21T02:51:43.746Z,6.16
2022-09-21T02:54:13.847Z,6.09
2022-09-21T02:56:42.509Z,6.44
2022-09-21T02:59:10.682Z,5.98
2022-09-21T03:01:40.166Z,5.99
2022-09-21T03:04:06.786Z,6.03
2022-09-21T03:06:34.053Z,6.11
2022-09-21T03:09:00.710Z,6.40
2022-09-21T03:11:27.304Z,6.24
2022-09-21T03:13:54.752Z,6.18
2022-09-21T03:16:22.368Z,6.07
2022-09-21T03:18:48.968Z,5.96
2022-09-21T03:21:15.641Z,6.23
2022-09-21T03:23:42.294Z,6.21
2022-09-21T03:26:08.975Z,6.10
2022-09-21T03:28:35.539Z,6.11
2022-09-21T03:31:02.343Z,5.89
2022-09-21T03:33:28.978Z,5.95
2022-09-21T03:35:55.606Z,5.53
2022-09-21T03:38:22.378Z,5.55
2022-09-21T03:40:49.891Z,5.60
2022-09-21T03:43:17.891Z,5.87
2022-09-21T03:45:45.087Z,5.75
2022-09-21T03:48:12.637Z,5.96
2022-09-21T03:50:39.319Z,5.54
2022-09-21T03:53:06.618Z,5.70
2022-09-21T03:55:33.452Z,5.96
2022-09-21T03:58:00.170Z,5.58
2022-09-21T04:00:27.091Z,5.72
2022-09-21T04:02:53.795Z,5.49
2022-09-21T04:05:20.800Z,5.31
2022-09-21T04:07:47.956Z,5.66
2022-09-21T04:10:20.114Z,5.49
2022-09-21T04:12:47.335Z,5.44
2022-09-21T04:15:19.426Z,5.50
2022-09-21T04:17:47.082Z,5.41
2022-09-21T04:20:13.894Z,5.45
2022-09-21T04:22:43.668Z,5.57
2022-09-21T04:25:12.618Z,5.55
2022-09-21T04:27:39.740Z,5.41
2022-09-21T04:30:07.370Z,5.50
2022-09-21T04:32:34.078Z,5.45
2022-09-21T04:35:00.641Z,5.14
2022-09-21T04:37:27.218Z,5.16
2022-09-21T04:39:53.783Z,5.01
2022-09-21T04:42:20.386Z,5.15
2022-09-21T04:44:46.982Z,5.11
2022-09-21T04:47:13.529Z,5.16
2022-09-21T04:49:40.110Z,5.14
2022-09-21T04:52:06.762Z,5.08
2022-09-21T04:54:33.415Z,5.04
2022-09-21T04:57:00.076Z,5.05
2022-09-21T04:59:26.639Z,4.89
2022-09-21T05:01:53.392Z,5.04
2022-09-21T05:04:20.012Z,5.03
2022-09-21T05:06:46.791Z,4.73
2022-09-21T05:09:32.345Z,4.88
2022-09-21T05:11:58.911Z,5.21
2022-09-21T05:14:25.494Z,5.01
2022-09-21T05:16:52.045Z,5.05
2022-09-21T05:19:18.772Z,4.63
2022-09-21T05:21:46.377Z,4.86
2022-09-21T05:24:12.992Z,4.81
2022-09-21T05:26:39.784Z,4.61
2022-09-21T05:29:06.700Z,4.82
2022-09-21T05:31:43.536Z,4.96
2022-09-21T05:34:38.927Z,5.03
2022-09-21T05:37:12.743Z,5.02
2022-09-21T05:39:39.595Z,5.09
2022-09-21T05:42:06.954Z,5.16
2022-09-21T05:44:33.729Z,5.08
2022-09-21T05:47:26.369Z,5.01
2022-09-21T05:50:13.394Z,5.09
2022-09-21T05:53:07.530Z,5.17
2022-09-21T05:55:43.239Z,5.24
2022-09-21T05:58:23.045Z,5.46
2022-09-21T06:01:00.070Z,5.44
2022-09-21T06:03:29.434Z,5.62
2022-09-21T06:05:57.572Z,5.62
2022-09-21T06:08:25.642Z,5.50
2022-09-21T06:10:53.109Z,5.44
2022-09-21T06:13:19.673Z,5.67
2022-09-21T06:15:46.389Z,5.77
2022-09-21T06:18:17.499Z,5.45
2022-09-21T06:20:44.755Z,5.88
2022-09-21T06:23:13.326Z,6.04
2022-09-21T06:25:40.308Z,6.13
2022-09-21T06:28:10.011Z,6.27
2022-09-21T06:30:37.145Z,6.14
2022-09-21T06:33:05.670Z,6.37
2022-09-21T06:35:34.459Z,6.56
2022-09-21T06:38:02.421Z,6.77
2022-09-21T06:40:30.409Z,6.86
2022-09-21T06:42:58.862Z,6.92
2022-09-21T06:45:26.469Z,6.90
2022-09-21T06:47:53.124Z,7.00
2022-09-21T06:50:20.369Z,7.21
2022-09-21T06:52:47.490Z,7.23
2022-09-21T06:55:14.594Z,7.26
2022-09-21T06:57:41.530Z,7.27
2022-09-21T07:00:11.142Z,7.50
2022-09-21T07:02:37.842Z,7.95
2022-09-21T07:05:05.084Z,8.20
2022-09-21T07:07:31.949Z,8.43
2022-09-21T07:10:12.034Z,8.65
2022-09-21T07:12:42.221Z,8.78
2022-09-21T07:15:10.366Z,8.79
2022-09-21T07:17:39.240Z,9.05
2022-09-21T07:20:07.906Z,9.05
2022-09-21T07:22:35.698Z,9.25
2022-09-21T07:25:03.885Z,9.29
2022-09-21T07:27:31.989Z,9.37
2022-09-21T07:29:58.859Z,9.29
2022-09-21T07:32:28.481Z,9.34
2022-09-21T07:34:57.093Z,9.53
2022-09-21T07:37:24.951Z,9.83
2022-09-21T07:39:52.885Z,9.81
2022-09-21T07:42:22.481Z,9.79
2022-09-21T07:44:50.937Z,9.94
2022-09-21T07:47:17.846Z,10.02
2022-09-21T07:49:44.367Z,9.87
2022-09-21T07:52:11.396Z,10.09
2022-09-21T07:54:38.038Z,10.04
2022-09-21T07:57:23.277Z,10.05
2022-09-21T07:59:50.163Z,9.91
2022-09-21T08:02:16.784Z,10.22
2022-09-21T08:04:43.415Z,9.92
2022-09-21T08:07:09.950Z,10.15
2022-09-21T08:09:36.583Z,10.15
2022-09-21T08:12:03.360Z,10.20
2022-09-21T08:14:29.986Z,10.21
2022-09-21T08:16:56.538Z,10.40
2022-09-21T08:19:25.714Z,10.51
2022-09-21T08:21:57.176Z,10.53
2022-09-21T08:24:26.838Z,10.80
2022-09-21T08:26:55.634Z,10.53
2022-09-21T08:29:22.390Z,10.81
2022-09-21T08:31:49.109Z,10.82
2022-09-21T08:34:16.178Z,10.89
2022-09-21T08:36:43.515Z,11.11
2022-09-21T08:39:10.209Z,11.05
2022-09-21T08:42:07.503Z,11.04
2022-09-21T08:44:48.526Z,11.21
2022-09-21T08:47:40.529Z,11.29
2022-09-21T08:50:33.798Z,11.20
2022-09-21T08:53:20.038Z,11.30
2022-09-21T08:55:46.950Z,11.32
2022-09-21T08:58:22.180Z,11.46
2022-09-21T09:01:07.261Z,11.51
2022-09-21T09:03:40.993Z,11.56
2022-09-21T09:06:46.074Z,11.56
2022-09-21T09:09:33.734Z,11.85
2022-09-21T09:12:27.390Z,11.75
2022-09-21T09:14:53.858Z,11.94
2022-09-21T09:17:52.781Z,12.24
2022-09-21T09:20:41.727Z,12.28
2022-09-21T09:23:11.274Z,12.61
2022-09-21T09:25:41.098Z,12.65
2022-09-21T09:28:29.488Z,12.53
2022-09-21T09:31:22.024Z,12.77
2022-09-21T09:34:27.568Z,12.58
2022-09-21T09:36:59.884Z,12.60
2022-09-21T09:39:29.662Z,12.73
2022-09-21T09:42:24.205Z,12.51
2022-09-21T09:45:15.506Z,12.87
2022-09-21T09:48:15.869Z,12.81
2022-09-21T09:50:43.257Z,13.48
2022-09-21T09:53:14.441Z,13.21
2022-09-21T09:55:44.199Z,13.67
2022-09-21T09:58:39.677Z,13.77
2022-09-21T10:01:06.468Z,13.65
2022-09-21T10:03:33.271Z,13.61
2022-09-21T10:05:59.837Z,13.78
2022-09-21T10:08:36.754Z,13.65
2022-09-21T10:11:04.083Z,13.28
2022-09-21T10:13:35.906Z,13.41
2022-09-21T10:16:18.199Z,13.46
2022-09-21T10:18:46.536Z,13.34
2022-09-21T10:21:20.486Z,13.27
2022-09-21T10:24:01.647Z,13.49
2022-09-21T10:26:44.207Z,13.26
2022-09-21T10:29:22.647Z,13.46
2022-09-21T10:31:57.025Z,13.86
2022-09-21T10:34:24.918Z,13.77
2022-09-21T10:36:56.683Z,13.82
2022-09-21T10:39:33.973Z,13.50
2022-09-21T10:42:03.069Z,13.71
2022-09-21T10:44:41.832Z,13.73
2022-09-21T10:47:17.307Z,12.91
2022-09-21T10:50:06.205Z,13.53
2022-09-21T10:52:45.947Z,14.01
2022-09-21T10:55:19.825Z,13.85
2022-09-21T10:57:47.971Z,13.73
2022-09-21T11:00:25.005Z,13.89
2022-09-21T11:02:54.763Z,13.95
2022-09-21T11:05:29.498Z,14.16
2022-09-21T11:08:14.609Z,14.62
2022-09-21T11:10:53.433Z,14.73
2022-09-21T11:13:46.532Z,15.08
2022-09-21T11:16:31.363Z,14.96
2022-09-21T11:19:16.193Z,15.18
2022-09-21T11:22:07.299Z,14.74
2022-09-21T11:24:50.183Z,14.63
2022-09-21T11:27:37.089Z,14.72
2022-09-21T11:30:14.078Z,14.61
2022-09-21T11:33:25.826Z,14.48
2022-09-21T11:36:04.378Z,14.44
2022-09-21T11:38:55.243Z,14.43
2022-09-21T11:41:49.996Z,14.69
2022-09-21T11:44:43.837Z,15.06
2022-09-21T11:47:35.130Z,14.89
2022-09-21T11:50:29.356Z,14.94
2022-09-21T11:53:27.550Z,14.47
2022-09-21T11:56:15.659Z,14.70
2022-09-21T11:59:26.666Z,14.66
2022-09-21T12:02:02.126Z,14.81
2022-09-21T12:04:36.353Z,15.04
2022-09-21T12:07:11.698Z,15.00
2022-09-21T12:09:50.133Z,15.21
2022-09-21T12:12:22.790Z,15.24
2022-09-21T12:15:02.111Z,14.97
2022-09-21T12:17:49.517Z,15.07
2022-09-21T12:20:35.018Z,15.36
2022-09-21T12:23:11.900Z,15.32
2022-09-21T12:25:46.830Z,15.24
2022-09-21T12:28:28.906Z,15.15
2022-09-21T12:31:02.088Z,14.97
2022-09-21T12:33:45.297Z,15.55
2022-09-21T12:36:28.171Z,16.65
2022-09-21T12:38:54.904Z,17.11
2022-09-21T12:41:59.391Z,17.52
2022-09-21T12:45:02.658Z,20.24
2022-09-21T12:47:32.129Z,20.61
2022-09-21T12:50:20.754Z,21.09
2022-09-21T12:52:49.905Z,20.40
2022-09-21T12:55:35.652Z,21.17
2022-09-21T12:58:15.679Z,20.68
2022-09-21T13:01:15.661Z,20.20
2022-09-21T13:03:43.834Z,20.88
2022-09-21T13:06:22.492Z,19.83
2022-09-21T13:11:21.426Z,19.76
2022-09-21T13:13:52.850Z,19.19
2022-09-21T13:16:27.558Z,19.34
2022-09-21T13:19:01.973Z,19.15
2022-09-21T13:21:30.718Z,18.83
2022-09-21T13:24:01.319Z,18.61
2022-09-21T13:26:34.993Z,19.85
2022-09-21T13:29:23.437Z,18.97
2022-09-21T13:31:57.950Z,19.39
2022-09-21T13:34:24.647Z,18.91
2022-09-21T13:37:16.628Z,20.60
2022-09-21T13:40:02.405Z,18.65
2022-09-21T13:42:31.117Z,18.67
2022-09-21T13:44:58.499Z,21.00
2022-09-21T13:47:33.773Z,21.02
2022-09-21T13:50:13.062Z,19.29
2022-09-21T13:52:45.971Z,19.50
2022-09-21T13:55:30.514Z,20.16
2022-09-21T13:58:02.038Z,21.78
2022-09-21T14:00:38.337Z,21.57
2022-09-21T14:03:23.106Z,21.21
2022-09-21T14:05:54.516Z,21.48
2022-09-21T14:08:26.386Z,19.57
2022-09-21T14:10:58.005Z,19.20
2022-09-21T14:13:24.730Z,19.46
2022-09-21T14:15:51.346Z,18.44
2022-09-21T14:18:21.690Z,18.33
2022-09-21T14:21:08.019Z,20.17
2022-09-21T14:23:37.246Z,20.31
2022-09-21T14:26:36.409Z,20.09
2022-09-21T14:29:19.148Z,21.54
2022-09-21T14:31:47.588Z,20.51
2022-09-21T14:34:23.761Z,20.10
2022-09-21T14:36:54.225Z,20.46
2022-09-21T14:39:32.308Z,22.09
2022-09-21T14:42:08.366Z,21.85
2022-09-21T14:44:36.697Z,21.11
2022-09-21T14:47:18.526Z,21.83
2022-09-21T14:50:14.403Z,21.53
2022-09-21T14:52:42.207Z,20.91
2022-09-21T14:55:22.291Z,22.81
2022-09-21T14:58:29.061Z,19.50
2022-09-21T15:00:55.784Z,21.78
2022-09-21T15:03:28.073Z,21.62
2022-09-21T15:05:58.948Z,20.95
2022-09-21T15:08:59.147Z,22.16
2022-09-21T15:11:36.887Z,23.87
2022-09-21T15:14:25.757Z,21.15
2022-09-21T15:16:52.518Z,21.20
2022-09-21T15:19:19.052Z,20.28
2022-09-21T15:21:48.136Z,20.84
2022-09-21T15:24:20.971Z,21.72
2022-09-21T15:26:50.634Z,22.53
2022-09-21T15:29:49.029Z,23.23
2022-09-21T15:32:46.755Z,23.65
2022-09-21T15:35:18.177Z,22.82
2022-09-21T15:37:45.711Z,22.66
2022-09-21T15:40:31.332Z,18.42
2022-09-21T15:43:00.802Z,16.95
2022-09-21T15:45:30.413Z,16.08
2022-09-21T15:47:58.355Z,16.28
2022-09-21T15:50:27.097Z,16.08
2022-09-21T15:53:14.638Z,16.26
2022-09-21T15:55:47.369Z,16.96
2022-09-21T15:58:27.031Z,16.66
2022-09-21T16:00:55.505Z,16.35
2022-09-21T16:03:25.948Z,16.37
2022-09-21T16:05:55.381Z,16.09
2022-09-21T16:08:27.107Z,15.83
2022-09-21T16:11:15.129Z,15.22
2022-09-21T16:14:02.662Z,15.25
2022-09-21T16:16:29.295Z,15.57
2022-09-21T16:18:59.514Z,15.29
2022-09-21T16:21:32.334Z,15.28
2022-09-21T16:24:18.570Z,15.18
2022-09-21T16:26:58.000Z,14.96
2022-09-21T16:29:27.617Z,15.11
2022-09-21T16:32:18.731Z,15.08
2022-09-21T16:34:51.094Z,14.60
2022-09-21T16:37:24.229Z,14.56
2022-09-21T16:40:09.978Z,14.29
2022-09-21T16:42:37.562Z,14.25
2022-09-21T16:45:11.498Z,14.19
2022-09-21T16:47:38.411Z,14.17
2022-09-21T16:50:08.010Z,14.18
2022-09-21T16:52:34.563Z,14.12
2022-09-21T16:55:01.548Z,13.89
2022-09-21T16:57:28.600Z,13.81
2022-09-21T16:59:55.499Z,13.82
2022-09-21T17:02:22.194Z,13.84
2022-09-21T17:04:49.003Z,13.80
2022-09-21T17:07:17.025Z,13.72
2022-09-21T17:09:47.528Z,13.49
2022-09-21T17:12:17.636Z,13.08
2022-09-21T17:14:46.972Z,13.17
2022-09-21T17:17:24.411Z,13.33
2022-09-21T17:19:53.087Z,12.93
2022-09-21T17:22:20.111Z,12.64
2022-09-21T17:24:51.173Z,12.48
2022-09-21T17:27:21.823Z,12.46
2022-09-21T17:29:49.499Z,12.12
2022-09-21T17:32:22.254Z,12.20
2022-09-21T17:35:01.546Z,12.10
2022-09-21T17:37:29.258Z,12.22
2022-09-21T17:39:56.030Z,12.19
2022-09-21T17:42:24.935Z,12.10
2022-09-21T17:45:12.908Z,12.32
2022-09-21T17:47:41.182Z,12.23
2022-09-21T17:50:10.644Z,12.16
2022-09-21T17:52:55.825Z,12.17
2022-09-21T17:55:22.810Z,12.18
2022-09-21T17:58:27.394Z,12.23
2022-09-21T18:01:08.830Z,12.16
2022-09-21T18:03:41.717Z,12.32
2022-09-21T18:06:10.013Z,12.22
2022-09-21T18:08:39.014Z,12.25
2022-09-21T18:11:44.419Z,12.20
2022-09-21T18:14:39.205Z,12.22
2022-09-21T18:17:12.955Z,12.13
2022-09-21T18:20:01.390Z,12.17
2022-09-21T18:22:44.234Z,11.97
2022-09-21T18:25:25.887Z,11.91
2022-09-21T18:27:53.486Z,11.90
2022-09-21T18:30:20.207Z,11.82
2022-09-21T18:33:07.166Z,12.03
2022-09-21T18:35:45.838Z,12.13
2022-09-21T18:38:30.726Z,11.97
2022-09-21T18:41:23.173Z,12.10
2022-09-21T18:43:52.505Z,11.96
2022-09-21T18:46:28.985Z,11.96
2022-09-21T18:49:05.466Z,11.89
2022-09-21T18:52:10.195Z,11.97
2022-09-21T18:54:36.867Z,12.17
2022-09-21T18:57:13.937Z,11.84
2022-09-21T18:59:41.662Z,11.92
2022-09-21T19:02:18.171Z,11.89
2022-09-21T19:04:45.717Z,11.93
2022-09-21T19:07:45.569Z,11.73
2022-09-21T19:10:17.127Z,11.57
2022-09-21T19:13:15.884Z,11.55
2022-09-21T19:16:01.592Z,11.29
2022-09-21T19:19:03.874Z,11.19
2022-09-21T19:21:50.526Z,10.98
2022-09-21T19:24:17.132Z,11.06
2022-09-21T19:26:55.864Z,10.99
2022-09-21T19:29:31.531Z,10.75
2022-09-21T19:31:58.480Z,10.73
2022-09-21T19:34:25.371Z,10.65
2022-09-21T19:36:52.090Z,10.49
2022-09-21T19:39:19.717Z,10.46
2022-09-21T19:42:07.739Z,10.71
2022-09-21T19:45:00.638Z,10.98
2022-09-21T19:47:52.411Z,10.81
2022-09-21T19:50:23.595Z,10.52
2022-09-21T19:52:52.030Z,10.35
2022-09-21T19:55:39.620Z,10.30
2022-09-21T19:58:25.314Z,10.25
2022-09-21T20:00:55.197Z,10.31
2022-09-21T20:03:42.091Z,10.20
2022-09-21T20:06:16.713Z,10.04
2022-09-21T20:09:00.112Z,9.86
2022-09-21T20:11:36.510Z,9.71
2022-09-21T20:14:06.273Z,9.77
2022-09-21T20:16:53.275Z,9.64
2022-09-21T20:19:54.235Z,9.58
2022-09-21T20:22:35.427Z,9.41
2022-09-21T20:25:23.675Z,9.41
2022-09-21T20:27:52.502Z,9.35
2022-09-21T20:30:22.137Z,9.09
2022-09-21T20:32:52.162Z,9.28
2022-09-21T20:35:25.193Z,9.15
2022-09-21T20:37:52.461Z,8.88
2022-09-21T20:40:20.330Z,9.06
2022-09-21T20:42:47.323Z,8.92
2022-09-21T20:45:14.109Z,8.90
2022-09-21T20:47:40.687Z,8.84
2022-09-21T20:50:15.773Z,8.71
2022-09-21T20:52:43.470Z,8.50
2022-09-21T20:55:13.475Z,8.62
2022-09-21T20:57:40.509Z,8.55
2022-09-21T21:00:10.273Z,8.67
2022-09-21T21:02:36.927Z,8.41
2022-09-21T21:05:05.641Z,8.62
2022-09-21T21:07:32.401Z,8.40
2022-09-21T21:09:58.993Z,8.34
2022-09-21T21:12:26.298Z,8.24
2022-09-21T21:14:53.066Z,8.32
2022-09-21T21:17:19.606Z,8.33
2022-09-21T21:19:46.189Z,8.36
2022-09-21T21:22:13.519Z,8.28
2022-09-21T21:24:40.784Z,8.13
2022-09-21T21:27:19.639Z,8.28
2022-09-21T21:29:51.845Z,8.08
2022-09-21T21:32:23.086Z,8.24
2022-09-21T21:34:51.138Z,8.11
2022-09-21T21:37:19.598Z,7.73
2022-09-21T21:39:47.350Z,7.97
2022-09-21T21:42:15.435Z,7.80
2022-09-21T21:44:41.997Z,7.86
2022-09-21T21:47:27.750Z,7.23
2022-09-21T21:49:55.236Z,7.54
2022-09-21T21:52:22.080Z,7.69
2022-09-21T21:54:49.774Z,7.76
2022-09-21T21:57:16.320Z,7.63
2022-09-21T21:59:43.515Z,7.68
2022-09-21T22:02:10.678Z,7.64
2022-09-21T22:04:38.624Z,7.62
2022-09-21T22:07:05.886Z,7.60
2022-09-21T22:09:32.740Z,7.72
2022-09-21T22:12:01.165Z,7.34
2022-09-21T22:14:28.266Z,7.52
2022-09-21T22:16:55.401Z,7.43
2022-09-21T22:19:22.046Z,7.34
2022-09-21T22:21:53.816Z,7.30
2022-09-21T22:24:21.067Z,7.48
2022-09-21T22:26:48.554Z,7.31
2022-09-21T22:29:17.082Z,7.04
2022-09-21T22:31:49.406Z,6.85
2022-09-21T22:34:16.767Z,7.01
2022-09-21T22:36:43.949Z,7.16
2022-09-21T22:39:12.022Z,7.25
2022-09-21T22:41:40.875Z,7.31
2022-09-21T22:44:08.481Z,7.36
2022-09-21T22:46:35.649Z,7.43
2022-09-21T22:49:02.420Z,7.36
2022-09-21T22:51:29.893Z,7.27
2022-09-21T22:53:56.843Z,7.30
2022-09-21T22:56:26.149Z,7.28
2022-09-21T22:58:55.102Z,7.09
2022-09-21T23:01:25.419Z,7.02
2022-09-21T23:03:56.587Z,6.90
2022-09-21T23:06:26.557Z,6.73
2022-09-21T23:08:54.918Z,6.71
2022-09-21T23:11:24.245Z,7.14
2022-09-21T23:13:50.870Z,7.18
2022-09-21T23:16:17.964Z,6.74
2022-09-21T23:18:45.690Z,6.65
2022-09-21T23:21:15.893Z,6.53
2022-09-21T23:23:43.129Z,6.52
2022-09-21T23:26:18.565Z,6.99
2022-09-21T23:28:50.758Z,6.63
2022-09-21T23:31:17.977Z,6.63
2022-09-21T23:33:47.931Z,6.70
2022-09-21T23:36:16.783Z,6.80
2022-09-21T23:38:43.952Z,6.73
2022-09-21T23:41:14.552Z,6.22
2022-09-21T23:43:43.278Z,6.71
2022-09-21T23:46:11.919Z,6.55
2022-09-21T23:48:40.330Z,6.46
2022-09-21T23:51:07.421Z,6.48
2022-09-21T23:53:34.572Z,6.62
2022-09-21T23:56:01.519Z,6.39
2022-09-21T23:58:28.481Z,6.32
